Time;durP1;ratioP1;P1;durP2;ratioP2;P2;SDS_P1;SDS_P2;PMS_P1;PMS_P2;Temp;Humidity;BMP_temperature;BMP_pressure;BME280_temperature;BME280_humidity;BME280_pressure;Samples;Min_cycle;Max_cycle;Signal;HPM_P1;HPM_P2
2021/08/20 00:02:16;;;;;;;;;;;17.60;93.70;;;;;;4316241;33;44267;-79
2021/08/20 00:04:43;;;;;;;;;;;17.60;93.70;;;;;;4317761;33;43246;-80
2021/08/20 00:07:11;;;;;;;;;;;17.50;93.70;;;;;;4317333;33;42909;-80
2021/08/20 00:09:38;;;;;;;;;;;17.50;93.70;;;;;;4317404;33;42930;-79
2021/08/20 00:12:05;;;;;;;;;;;17.50;93.70;;;;;;4316426;33;43706;-80
2021/08/20 00:14:32;;;;;;;;;;;17.50;93.60;;;;;;4316604;33;44297;-80
2021/08/20 00:16:59;;;;;;;;;;;17.50;93.60;;;;;;4317612;33;43293;-80
2021/08/20 00:19:28;;;;;;;;;;;17.50;93.60;;;;;;4317457;33;42197;-80
2021/08/20 00:21:55;;;;;;;;;;;17.50;93.60;;;;;;4316053;33;43771;-80
2021/08/20 00:24:22;;;;;;;;;;;17.50;93.50;;;;;;4316119;33;44240;-80
2021/08/20 00:26:49;;;;;;;;;;;17.50;93.50;;;;;;4317281;33;44137;-79
2021/08/20 00:29:20;;;;;;;;;;;17.50;93.50;;;;;;4316249;33;44128;-79
2021/08/20 00:31:47;;;;;;;;;;;17.50;93.50;;;;;;4317454;33;43256;-79
2021/08/20 00:34:14;;;;;;;;;;;17.40;93.50;;;;;;4315856;33;43303;-79
2021/08/20 00:36:41;;;;;;;;;;;17.40;93.50;;;;;;4317018;33;41804;-80
2021/08/20 00:39:08;;;;;;;;;;;17.40;93.50;;;;;;4317076;33;44314;-79
2021/08/20 00:41:40;;;;;;;;;;;17.40;93.50;;;;;;4316870;33;44086;-79
2021/08/20 00:44:08;;;;;;;;;;;17.40;93.50;;;;;;4316333;33;43175;-79
2021/08/20 00:46:35;;;;;;;;;;;17.40;93.60;;;;;;4316773;33;42495;-79
2021/08/20 00:49:05;;;;;;;;;;;17.40;93.70;;;;;;4315991;33;42177;-79
2021/08/20 00:51:39;;;;;;;;;;;17.40;93.70;;;;;;4315643;33;43685;-79
2021/08/20 00:54:10;;;;;;;;;;;17.40;93.70;;;;;;4316264;33;43434;-79
2021/08/20 00:56:38;;;;;;;;;;;17.30;93.70;;;;;;4316299;33;42601;-79
2021/08/20 00:59:06;;;;;;;;;;;17.40;93.80;;;;;;4316411;33;43601;-79
2021/08/20 01:01:36;;;;;;;;;;;17.30;93.80;;;;;;4319240;33;43121;-79
2021/08/20 01:04:05;;;;;;;;;;;17.30;93.80;;;;;;4332036;33;44121;-80
2021/08/20 01:06:37;;;;;;;;;;;17.30;93.80;;;;;;4331342;33;43257;-79
2021/08/20 01:09:04;;;;;;;;;;;17.30;93.90;;;;;;4331688;33;43270;-79
2021/08/20 01:11:32;;;;;;;;;;;17.30;93.90;;;;;;4331022;33;42809;-79
2021/08/20 01:13:59;;;;;;;;;;;17.30;93.90;;;;;;4330996;33;42658;-79
2021/08/20 01:16:29;;;;;;;;;;;17.30;94.00;;;;;;4330988;33;44191;-79
2021/08/20 01:18:59;;;;;;;;;;;17.30;94.00;;;;;;4331016;33;43782;-79
2021/08/20 01:21:26;;;;;;;;;;;17.30;94.00;;;;;;4318336;33;43650;-79
2021/08/20 01:24:00;;;;;;;;;;;17.30;94.10;;;;;;4330825;33;43804;-79
2021/08/20 01:26:28;;;;;;;;;;;17.30;94.10;;;;;;4331278;33;43752;-79
2021/08/20 01:28:55;;;;;;;;;;;17.30;94.10;;;;;;4330813;33;43926;-79
2021/08/20 01:31:22;;;;;;;;;;;17.30;94.20;;;;;;4330862;33;43327;-79
2021/08/20 01:33:54;;;;;;;;;;;17.30;94.20;;;;;;4330948;33;42785;-79
2021/08/20 01:36:21;;;;;;;;;;;17.30;94.20;;;;;;4317843;33;43443;-79
2021/08/20 01:38:50;;;;;;;;;;;17.20;94.20;;;;;;4330564;33;44199;-79
2021/08/20 01:41:23;;;;;;;;;;;17.30;94.30;;;;;;4330689;33;44199;-79
2021/08/20 01:43:50;;;;;;;;;;;17.30;94.30;;;;;;4330633;33;42916;-79
2021/08/20 01:46:18;;;;;;;;;;;17.30;94.30;;;;;;4330812;33;44108;-79
2021/08/20 01:48:50;;;;;;;;;;;17.20;94.30;;;;;;4317888;33;43276;-79
2021/08/20 01:51:43;;;;;;;;;;;17.20;94.30;;;;;;4330777;33;43263;-79
2021/08/20 01:54:13;;;;;;;;;;;17.30;94.40;;;;;;4329469;33;43068;-79
2021/08/20 01:56:40;;;;;;;;;;;17.30;94.40;;;;;;4330649;33;43883;-79
2021/08/20 01:59:08;;;;;;;;;;;17.20;94.40;;;;;;4330656;33;43172;-80
2021/08/20 02:01:35;;;;;;;;;;;17.30;94.50;;;;;;4330573;33;42756;-80
2021/08/20 02:04:03;;;;;;;;;;;17.30;94.50;;;;;;4317715;33;44133;-80
2021/08/20 02:06:30;;;;;;;;;;;17.30;94.50;;;;;;4317199;33;43935;-79
2021/08/20 02:09:00;;;;;;;;;;;17.30;94.50;;;;;;4316976;33;43507;-79
2021/08/20 02:11:30;;;;;;;;;;;17.30;94.50;;;;;;4330881;33;43560;-79
2021/08/20 02:13:58;;;;;;;;;;;17.30;94.50;;;;;;4330322;33;43703;-80
2021/08/20 02:16:25;;;;;;;;;;;17.30;94.60;;;;;;4330479;33;43470;-80
2021/08/20 02:18:52;;;;;;;;;;;17.30;94.60;;;;;;4330155;33;44192;-79
2021/08/20 02:21:19;;;;;;;;;;;17.30;94.60;;;;;;4330671;33;44232;-80
2021/08/20 02:23:46;;;;;;;;;;;17.30;94.60;;;;;;4330200;33;43262;-81
2021/08/20 02:26:16;;;;;;;;;;;17.30;94.60;;;;;;4330704;33;43931;-79
2021/08/20 02:28:44;;;;;;;;;;;17.30;94.70;;;;;;4330582;33;43956;-79
2021/08/20 02:31:11;;;;;;;;;;;17.30;94.70;;;;;;4330681;33;43473;-79
2021/08/20 02:33:40;;;;;;;;;;;17.30;94.70;;;;;;4330638;33;44252;-79
2021/08/20 02:36:08;;;;;;;;;;;17.30;94.70;;;;;;4317110;33;42327;-79
2021/08/20 02:38:41;;;;;;;;;;;17.30;94.70;;;;;;4317140;33;43772;-79
2021/08/20 02:41:08;;;;;;;;;;;17.30;94.70;;;;;;4317516;33;43907;-80
2021/08/20 02:43:35;;;;;;;;;;;17.30;94.80;;;;;;4330473;33;43265;-80
2021/08/20 02:46:02;;;;;;;;;;;17.30;94.80;;;;;;4316864;33;43591;-80
2021/08/20 02:48:29;;;;;;;;;;;17.30;94.80;;;;;;4329824;33;44256;-80
2021/08/20 02:50:56;;;;;;;;;;;17.30;94.90;;;;;;4330067;33;43693;-80
2021/08/20 02:53:27;;;;;;;;;;;17.30;94.90;;;;;;4330084;33;42930;-79
2021/08/20 02:55:54;;;;;;;;;;;17.30;94.90;;;;;;4330347;33;42755;-79
2021/08/20 02:58:21;;;;;;;;;;;17.30;94.90;;;;;;4330267;33;43987;-80
2021/08/20 03:00:48;;;;;;;;;;;17.30;94.90;;;;;;4317181;33;43755;-80
2021/08/20 03:03:15;;;;;;;;;;;17.30;94.90;;;;;;4329912;33;43725;-80
2021/08/20 03:05:44;;;;;;;;;;;17.30;94.90;;;;;;4329811;33;45306;-79
2021/08/20 03:08:14;;;;;;;;;;;17.30;94.90;;;;;;4316665;33;44626;-80
2021/08/20 03:10:42;;;;;;;;;;;17.30;95.00;;;;;;4317123;33;44724;-79
2021/08/20 03:13:12;;;;;;;;;;;17.30;95.00;;;;;;4329935;33;42847;-81
2021/08/20 03:15:39;;;;;;;;;;;17.30;95.00;;;;;;4330089;33;43850;-80
2021/08/20 03:18:06;;;;;;;;;;;17.30;95.00;;;;;;4329749;33;43875;-79
2021/08/20 03:20:33;;;;;;;;;;;17.30;95.10;;;;;;4330713;33;43041;-79
2021/08/20 03:23:00;;;;;;;;;;;17.30;95.10;;;;;;4332982;33;43462;-79
2021/08/20 03:25:27;;;;;;;;;;;17.30;95.10;;;;;;4319812;33;44901;-79
2021/08/20 03:27:54;;;;;;;;;;;17.30;95.10;;;;;;4319436;33;43011;-79
2021/08/20 03:30:22;;;;;;;;;;;17.30;95.10;;;;;;4319295;33;42937;-79
2021/08/20 03:32:51;;;;;;;;;;;17.30;95.20;;;;;;4332827;33;42280;-79
2021/08/20 03:35:19;;;;;;;;;;;17.30;95.20;;;;;;4332491;33;43772;-80
2021/08/20 03:37:46;;;;;;;;;;;17.30;95.20;;;;;;4332442;33;43448;-82
2021/08/20 03:40:13;;;;;;;;;;;17.30;95.20;;;;;;4319096;33;43001;-80
2021/08/20 03:42:40;;;;;;;;;;;17.30;95.20;;;;;;4319094;33;43310;-80
2021/08/20 03:45:11;;;;;;;;;;;17.30;95.20;;;;;;4332867;33;43555;-79
2021/08/20 03:47:38;;;;;;;;;;;17.30;95.20;;;;;;4332661;33;43919;-80
2021/08/20 03:50:09;;;;;;;;;;;17.30;95.30;;;;;;4332767;33;43823;-80
2021/08/20 03:52:39;;;;;;;;;;;17.30;95.30;;;;;;4332583;33;43479;-80
2021/08/20 03:55:06;;;;;;;;;;;17.30;95.30;;;;;;4319599;33;43841;-80
2021/08/20 03:57:33;;;;;;;;;;;17.30;95.30;;;;;;4332190;33;42979;-80
2021/08/20 04:00:00;;;;;;;;;;;17.30;95.30;;;;;;4332567;33;44140;-80
2021/08/20 04:02:27;;;;;;;;;;;17.30;95.30;;;;;;4331903;33;44602;-80
2021/08/20 04:04:55;;;;;;;;;;;17.30;95.40;;;;;;4318908;33;43970;-79
2021/08/20 04:07:22;;;;;;;;;;;17.30;95.40;;;;;;4331930;33;42851;-79
2021/08/20 04:09:52;;;;;;;;;;;17.30;95.40;;;;;;4331907;33;43192;-80
2021/08/20 04:12:19;;;;;;;;;;;17.20;95.40;;;;;;4319331;33;42833;-80
2021/08/20 04:14:46;;;;;;;;;;;17.20;95.40;;;;;;4332435;33;43575;-80
2021/08/20 04:17:13;;;;;;;;;;;17.20;95.50;;;;;;4331920;33;43120;-80
2021/08/20 04:19:41;;;;;;;;;;;17.20;95.50;;;;;;4319019;33;42760;-80
2021/08/20 04:22:08;;;;;;;;;;;17.20;95.50;;;;;;4318994;33;44204;-80
2021/08/20 04:24:35;;;;;;;;;;;17.20;95.60;;;;;;4332440;33;44305;-80
2021/08/20 04:27:05;;;;;;;;;;;17.20;95.60;;;;;;4331761;33;42895;-80
2021/08/20 04:29:32;;;;;;;;;;;17.20;95.60;;;;;;4332134;33;43881;-80
2021/08/20 04:32:02;;;;;;;;;;;17.20;95.60;;;;;;4331410;33;44046;-80
2021/08/20 04:34:29;;;;;;;;;;;17.20;95.60;;;;;;4318380;33;43741;-81
2021/08/20 04:36:56;;;;;;;;;;;17.20;95.70;;;;;;4331648;33;43787;-81
2021/08/20 04:39:23;;;;;;;;;;;17.20;95.70;;;;;;4331553;33;42375;-79
2021/08/20 04:41:53;;;;;;;;;;;17.20;95.70;;;;;;4332094;33;43924;-80
2021/08/20 04:44:23;;;;;;;;;;;17.20;95.80;;;;;;4331550;33;43465;-80
2021/08/20 04:46:50;;;;;;;;;;;17.20;95.80;;;;;;4331387;33;42615;-80
2021/08/20 04:49:17;;;;;;;;;;;17.20;95.80;;;;;;4331837;33;43663;-80
2021/08/20 04:51:44;;;;;;;;;;;17.20;95.80;;;;;;4318397;33;43887;-79
2021/08/20 04:54:14;;;;;;;;;;;17.20;95.80;;;;;;4331297;33;44160;-81
2021/08/20 04:56:41;;;;;;;;;;;17.20;95.90;;;;;;4331777;33;43902;-81
2021/08/20 04:59:11;;;;;;;;;;;17.20;95.90;;;;;;4331220;33;44016;-80
2021/08/20 05:01:41;;;;;;;;;;;17.20;95.90;;;;;;4331260;33;43140;-81
2021/08/20 05:04:08;;;;;;;;;;;17.10;95.90;;;;;;4318112;33;43772;-80
2021/08/20 05:06:37;;;;;;;;;;;17.20;96.00;;;;;;4331258;33;42261;-80
2021/08/20 05:09:06;;;;;;;;;;;17.20;96.00;;;;;;4331332;33;42842;-79
2021/08/20 05:11:36;;;;;;;;;;;17.20;96.00;;;;;;4318727;33;44184;-82
2021/08/20 05:14:03;;;;;;;;;;;17.10;96.00;;;;;;4331412;33;43454;-82
2021/08/20 05:16:33;;;;;;;;;;;17.10;96.10;;;;;;4331334;33;44204;-82
2021/08/20 05:19:00;;;;;;;;;;;17.10;96.10;;;;;;4317855;33;44122;-81
2021/08/20 05:21:30;;;;;;;;;;;17.10;96.10;;;;;;4318083;33;43691;-83
2021/08/20 05:24:00;;;;;;;;;;;17.10;96.20;;;;;;4318085;33;43754;-83
2021/08/20 05:26:27;;;;;;;;;;;17.10;96.60;;;;;;4317982;33;43829;-82
2021/08/20 05:28:57;;;;;;;;;;;17.10;96.20;;;;;;4331228;33;42674;-80
2021/08/20 05:31:27;;;;;;;;;;;17.10;96.20;;;;;;4330767;33;44096;-79
2021/08/20 05:33:54;;;;;;;;;;;17.10;96.30;;;;;;4317583;33;43599;-81
2021/08/20 05:36:21;;;;;;;;;;;17.10;96.30;;;;;;4330919;33;44080;-81
2021/08/20 05:38:51;;;;;;;;;;;17.10;96.30;;;;;;4331051;33;44256;-80
2021/08/20 05:41:24;;;;;;;;;;;17.10;96.30;;;;;;4317982;33;43931;-83
2021/08/20 05:43:59;;;;;;;;;;;17.20;96.30;;;;;;4330242;33;44596;-83
2021/08/20 05:46:31;;;;;;;;;;;17.10;96.30;;;;;;4331057;33;43193;-82
2021/08/20 05:49:05;;;;;;;;;;;17.20;96.40;;;;;;4330936;33;45251;-83
2021/08/20 05:51:38;;;;;;;;;;;17.20;96.40;;;;;;4317437;33;42746;-83
2021/08/20 05:54:16;;;;;;;;;;;17.10;96.40;;;;;;4331017;33;42601;-83
2021/08/20 05:56:51;;;;;;;;;;;17.10;96.40;;;;;;4330537;33;43424;-83
2021/08/20 05:59:26;;;;;;;;;;;17.20;96.40;;;;;;4330947;33;43419;-83
2021/08/20 06:02:02;;;;;;;;;;;17.10;96.40;;;;;;4317276;33;44947;-82
2021/08/20 06:04:40;;;;;;;;;;;17.20;96.50;;;;;;4317604;33;43909;-82
2021/08/20 06:07:13;;;;;;;;;;;17.20;96.50;;;;;;4317227;33;41954;-82
2021/08/20 06:09:42;;;;;;;;;;;17.20;96.50;;;;;;4317797;33;46013;-82
2021/08/20 06:12:14;;;;;;;;;;;17.20;96.50;;;;;;4317080;33;45382;-79
2021/08/20 06:14:47;;;;;;;;;;;17.20;96.50;;;;;;4317608;33;42239;-80
2021/08/20 06:17:22;;;;;;;;;;;17.20;96.50;;;;;;4317850;33;45268;-80
2021/08/20 06:19:54;;;;;;;;;;;17.20;96.50;;;;;;4317063;33;45749;-79
2021/08/20 06:22:25;;;;;;;;;;;17.20;96.60;;;;;;4317556;33;44418;-80
2021/08/20 06:24:55;;;;;;;;;;;17.20;96.60;;;;;;4316963;33;44857;-79
2021/08/20 06:27:25;;;;;;;;;;;17.20;96.60;;;;;;4316871;33;45020;-80
2021/08/20 06:29:58;;;;;;;;;;;17.20;96.60;;;;;;4317052;33;43258;-79
2021/08/20 06:32:30;;;;;;;;;;;17.20;96.60;;;;;;4330712;33;45779;-80
2021/08/20 06:34:58;;;;;;;;;;;17.20;96.70;;;;;;4317684;33;44813;-80
2021/08/20 06:37:28;;;;;;;;;;;17.20;96.70;;;;;;4317202;33;43932;-80
2021/08/20 06:39:59;;;;;;;;;;;17.20;96.70;;;;;;4317005;33;44467;-80
2021/08/20 06:42:29;;;;;;;;;;;17.20;96.70;;;;;;4316771;33;44820;-79
2021/08/20 06:45:10;;;;;;;;;;;17.20;96.80;;;;;;4317140;33;43990;-76
2021/08/20 06:47:41;;;;;;;;;;;17.20;96.70;;;;;;4316762;33;44613;-81
2021/08/20 06:50:19;;;;;;;;;;;17.20;96.70;;;;;;4317396;33;43575;-81
2021/08/20 06:52:47;;;;;;;;;;;17.20;96.70;;;;;;4317514;33;43849;-79
2021/08/20 06:55:19;;;;;;;;;;;17.20;96.70;;;;;;4331915;33;43950;-82
2021/08/20 06:57:52;;;;;;;;;;;17.20;96.80;;;;;;4320151;33;45923;-82
2021/08/20 07:00:20;;;;;;;;;;;17.20;96.80;;;;;;4320379;33;43301;-81
2021/08/20 07:02:55;;;;;;;;;;;17.30;96.80;;;;;;4319647;33;45758;-80
2021/08/20 07:05:33;;;;;;;;;;;17.20;96.80;;;;;;4319899;33;42300;-80
2021/08/20 07:08:18;;;;;;;;;;;17.20;96.90;;;;;;4320012;33;43371;-82
2021/08/20 07:10:54;;;;;;;;;;;17.30;96.90;;;;;;4319851;33;42958;-81
2021/08/20 07:13:29;;;;;;;;;;;17.30;96.90;;;;;;4319716;33;44181;-80
2021/08/20 07:16:05;;;;;;;;;;;17.30;96.90;;;;;;4333172;33;43654;-81
2021/08/20 07:18:39;;;;;;;;;;;17.30;96.90;;;;;;4319848;33;44913;-82
2021/08/20 07:21:09;;;;;;;;;;;17.30;96.90;;;;;;4319737;33;44145;-81
2021/08/20 07:23:48;;;;;;;;;;;17.30;97.00;;;;;;4319759;33;44588;-81
2021/08/20 07:26:19;;;;;;;;;;;17.30;96.90;;;;;;4319456;33;46020;-79
2021/08/20 07:28:52;;;;;;;;;;;17.30;97.00;;;;;;4332760;33;38639;-82
2021/08/20 07:31:20;;;;;;;;;;;17.30;97.00;;;;;;4319992;33;42856;-80
2021/08/20 07:33:55;;;;;;;;;;;17.30;97.00;;;;;;4319648;33;43982;-80
2021/08/20 07:36:33;;;;;;;;;;;17.30;97.00;;;;;;4319658;33;44215;-82
2021/08/20 07:39:03;;;;;;;;;;;17.30;97.00;;;;;;4332694;33;43640;-79
2021/08/20 07:41:39;;;;;;;;;;;17.40;97.00;;;;;;4319448;33;45850;-82
2021/08/20 07:44:17;;;;;;;;;;;17.40;97.00;;;;;;4319750;33;43103;-81
2021/08/20 07:46:53;;;;;;;;;;;17.30;97.00;;;;;;4318991;33;42548;-80
2021/08/20 07:49:28;;;;;;;;;;;17.40;97.10;;;;;;4332592;33;43410;-80
2021/08/20 07:52:04;;;;;;;;;;;17.40;97.00;;;;;;4332241;33;42927;-80
2021/08/20 07:54:42;;;;;;;;;;;17.40;97.10;;;;;;4319215;33;45146;-81
2021/08/20 07:57:15;;;;;;;;;;;17.40;97.00;;;;;;4332603;33;43486;-81
2021/08/20 07:59:42;;;;;;;;;;;17.40;97.00;;;;;;4332242;33;42658;-81
2021/08/20 08:02:14;;;;;;;;;;;17.50;97.10;;;;;;4319041;33;45570;-81
2021/08/20 08:04:50;;;;;;;;;;;17.40;97.00;;;;;;4319483;33;43942;-81
2021/08/20 08:07:20;;;;;;;;;;;17.40;97.00;;;;;;4318871;33;43273;-80
2021/08/20 08:09:53;;;;;;;;;;;17.40;97.00;;;;;;4319104;33;44479;-81
2021/08/20 08:12:31;;;;;;;;;;;17.50;97.10;;;;;;4332529;33;44108;-79
2021/08/20 08:15:04;;;;;;;;;;;17.50;97.10;;;;;;4319312;33;44200;-80
2021/08/20 08:17:39;;;;;;;;;;;17.50;97.00;;;;;;4331907;33;44302;-79
2021/08/20 08:20:11;;;;;;;;;;;17.50;97.10;;;;;;4332258;33;42898;-80
2021/08/20 08:22:44;;;;;;;;;;;17.50;97.00;;;;;;4318790;33;44227;-80
2021/08/20 08:25:17;;;;;;;;;;;17.50;97.00;;;;;;4331939;33;42615;-80
2021/08/20 08:27:57;;;;;;;;;;;17.50;97.00;;;;;;4319173;33;43257;-81
2021/08/20 08:30:26;;;;;;;;;;;17.60;97.00;;;;;;4318950;33;46001;-79
2021/08/20 08:33:00;;;;;;;;;;;17.50;97.00;;;;;;4331669;33;42833;-79
2021/08/20 08:35:35;;;;;;;;;;;17.60;97.10;;;;;;4331774;33;42530;-80
2021/08/20 08:38:09;;;;;;;;;;;17.60;97.10;;;;;;4332067;33;44168;-80
2021/08/20 08:40:48;;;;;;;;;;;17.60;97.10;;;;;;4331577;33;42640;-80
2021/08/20 08:43:16;;;;;;;;;;;17.60;97.10;;;;;;4318810;33;44171;-81
2021/08/20 08:45:43;;;;;;;;;;;17.60;97.10;;;;;;4331530;33;42320;-79
2021/08/20 08:48:14;;;;;;;;;;;17.60;97.10;;;;;;4318821;33;44309;-78
2021/08/20 08:50:47;;;;;;;;;;;17.60;97.10;;;;;;4318585;33;43259;-79
2021/08/20 08:53:20;;;;;;;;;;;17.60;97.10;;;;;;4318655;33;43245;-80
2021/08/20 08:56:00;;;;;;;;;;;17.60;97.10;;;;;;4331764;33;43249;-80
2021/08/20 08:58:30;;;;;;;;;;;17.60;97.10;;;;;;4331944;33;44192;-79
2021/08/20 09:01:17;;;;;;;;;;;17.60;97.10;;;;;;4331881;33;43211;-79
2021/08/20 09:03:44;;;;;;;;;;;17.70;97.20;;;;;;4332601;33;20005;-79
2021/08/20 09:06:17;;;;;;;;;;;17.70;97.20;;;;;;4317975;33;42935;-81
2021/08/20 09:08:47;;;;;;;;;;;17.70;97.20;;;;;;4331720;33;43901;-79
2021/08/20 09:11:24;;;;;;;;;;;17.70;97.20;;;;;;4318005;33;44369;-80
2021/08/20 09:13:56;;;;;;;;;;;17.70;97.20;;;;;;4331329;33;42774;-80
2021/08/20 09:16:38;;;;;;;;;;;17.70;97.20;;;;;;4317926;33;43768;-79
2021/08/20 09:19:13;;;;;;;;;;;17.70;97.20;;;;;;4330766;33;43134;-79
2021/08/20 09:21:45;;;;;;;;;;;17.70;97.20;;;;;;4318008;33;44110;-79
2021/08/20 09:24:32;;;;;;;;;;;17.70;97.20;;;;;;4318353;33;44294;-79
2021/08/20 09:27:14;;;;;;;;;;;17.70;97.20;;;;;;4331528;33;43728;-79
2021/08/20 09:29:53;;;;;;;;;;;17.70;97.20;;;;;;4331307;33;43906;-79
2021/08/20 09:32:21;;;;;;;;;;;17.80;97.20;;;;;;4331122;33;44083;-78
2021/08/20 09:34:49;;;;;;;;;;;17.80;97.30;;;;;;4330891;33;42342;-80
2021/08/20 09:37:16;;;;;;;;;;;17.80;97.20;;;;;;4331135;33;44181;-79
2021/08/20 09:39:47;;;;;;;;;;;17.90;97.20;;;;;;4330621;33;43945;-80
2021/08/20 09:42:21;;;;;;;;;;;17.80;97.20;;;;;;4317706;33;42717;-79
2021/08/20 09:45:11;;;;;;;;;;;17.80;97.20;;;;;;4317821;33;43695;-79
2021/08/20 09:47:42;;;;;;;;;;;17.90;97.20;;;;;;4325481;33;42712;-78
2021/08/20 09:50:09;;;;;;;;;;;17.90;97.20;;;;;;4317395;33;43721;-79
2021/08/20 09:52:36;;;;;;;;;;;17.90;97.20;;;;;;4317387;33;43650;-79
2021/08/20 09:55:06;;;;;;;;;;;17.90;97.10;;;;;;4317496;33;44310;-78
2021/08/20 09:57:36;;;;;;;;;;;17.90;97.20;;;;;;4317476;33;42576;-80
2021/08/20 10:00:11;;;;;;;;;;;18.00;97.20;;;;;;4318318;33;44094;-79
2021/08/20 10:02:39;;;;;;;;;;;18.00;97.20;;;;;;4330118;33;42757;-80
2021/08/20 10:05:09;;;;;;;;;;;18.00;97.20;;;;;;4331449;33;20548;-77
2021/08/20 10:07:40;;;;;;;;;;;18.00;97.20;;;;;;4330492;33;41926;-79
2021/08/20 10:10:12;;;;;;;;;;;18.10;97.20;;;;;;4330962;33;43928;-79
2021/08/20 10:12:48;;;;;;;;;;;18.10;97.10;;;;;;4317736;33;43855;-78
2021/08/20 10:15:25;;;;;;;;;;;18.10;97.10;;;;;;4317221;33;42926;-81
2021/08/20 10:18:01;;;;;;;;;;;18.10;97.10;;;;;;4317496;33;44097;-79
2021/08/20 10:20:39;;;;;;;;;;;18.10;97.10;;;;;;4317237;33;44077;-79
2021/08/20 10:23:06;;;;;;;;;;;18.10;97.10;;;;;;4317421;33;42863;-79
2021/08/20 10:25:33;;;;;;;;;;;18.10;97.00;;;;;;4330347;33;42546;-79
2021/08/20 10:28:01;;;;;;;;;;;18.10;97.00;;;;;;4330618;33;42531;-79
2021/08/20 10:30:35;;;;;;;;;;;18.20;97.10;;;;;;4330042;33;42607;-79
2021/08/20 10:33:05;;;;;;;;;;;18.20;97.00;;;;;;4330118;33;44022;-79
2021/08/20 10:35:51;;;;;;;;;;;18.20;97.00;;;;;;4331615;33;19998;-79
2021/08/20 10:38:30;;;;;;;;;;;18.20;97.00;;;;;;4316930;33;42883;-80
2021/08/20 10:41:12;;;;;;;;;;;18.20;97.00;;;;;;4330311;33;43021;-79
2021/08/20 10:43:54;;;;;;;;;;;18.20;97.00;;;;;;4317417;33;43467;-79
2021/08/20 10:46:33;;;;;;;;;;;18.30;96.90;;;;;;4317232;33;42895;-79
2021/08/20 10:51:49;;;;;;;;;;;18.30;96.90;;;;;;4330011;33;43449;-79
2021/08/20 10:54:16;;;;;;;;;;;18.30;96.90;;;;;;4330494;33;43881;-79
2021/08/20 10:56:43;;;;;;;;;;;18.30;96.90;;;;;;4330495;33;44199;-79
2021/08/20 10:59:30;;;;;;;;;;;18.30;96.90;;;;;;4330426;33;43312;-79
2021/08/20 11:02:16;;;;;;;;;;;18.30;96.90;;;;;;4316948;33;43195;-79
2021/08/20 11:04:59;;;;;;;;;;;18.30;96.90;;;;;;4330454;33;43911;-79
2021/08/20 11:07:38;;;;;;;;;;;18.40;96.90;;;;;;4330685;33;20379;-80
2021/08/20 11:10:08;;;;;;;;;;;18.30;96.90;;;;;;4330397;33;43619;-79
2021/08/20 11:12:39;;;;;;;;;;;18.30;96.90;;;;;;4330055;33;43605;-79
2021/08/20 11:15:22;;;;;;;;;;;18.40;96.90;;;;;;4317429;33;43274;-79
2021/08/20 11:17:59;;;;;;;;;;;18.30;96.80;;;;;;4317086;33;43767;-78
2021/08/20 11:20:38;;;;;;;;;;;18.30;96.80;;;;;;4329933;33;44171;-79
2021/08/20 11:23:14;;;;;;;;;;;18.40;96.80;;;;;;4330310;33;44290;-79
2021/08/20 11:25:42;;;;;;;;;;;18.40;96.80;;;;;;4329872;33;43784;-79
2021/08/20 11:28:09;;;;;;;;;;;18.40;96.80;;;;;;4330075;33;43080;-79
2021/08/20 11:30:38;;;;;;;;;;;18.40;96.80;;;;;;4329727;33;44208;-79
2021/08/20 11:33:08;;;;;;;;;;;18.40;96.80;;;;;;4329985;33;43273;-79
2021/08/20 11:35:38;;;;;;;;;;;18.40;96.80;;;;;;4330152;33;43260;-80
2021/08/20 11:38:07;;;;;;;;;;;18.40;96.80;;;;;;4330846;33;20002;-78
2021/08/20 11:40:51;;;;;;;;;;;18.40;96.80;;;;;;4329981;33;43285;-79
2021/08/20 11:43:18;;;;;;;;;;;18.40;96.80;;;;;;4332864;33;43107;-79
2021/08/20 11:45:45;;;;;;;;;;;18.50;96.80;;;;;;4332307;33;43716;-80
2021/08/20 11:48:12;;;;;;;;;;;18.40;96.70;;;;;;4332890;33;43164;-80
2021/08/20 11:50:47;;;;;;;;;;;18.40;96.70;;;;;;4332831;33;43931;-79
2021/08/20 11:53:19;;;;;;;;;;;18.40;96.70;;;;;;4332748;33;43819;-79
2021/08/20 11:55:51;;;;;;;;;;;18.50;96.80;;;;;;4332787;33;43474;-79
2021/08/20 11:58:27;;;;;;;;;;;18.50;96.80;;;;;;4332663;33;44354;-79
2021/08/20 12:00:57;;;;;;;;;;;18.50;96.80;;;;;;4332075;33;43749;-79
2021/08/20 12:03:27;;;;;;;;;;;18.50;96.80;;;;;;4332268;33;42994;-79
2021/08/20 12:06:07;;;;;;;;;;;18.50;96.80;;;;;;4332404;33;44061;-77
2021/08/20 12:08:38;;;;;;;;;;;18.50;96.80;;;;;;4319823;33;19990;-79
2021/08/20 12:11:06;;;;;;;;;;;18.50;96.80;;;;;;4332564;33;43228;-79
2021/08/20 12:13:47;;;;;;;;;;;18.50;96.80;;;;;;4332616;33;43858;-79
2021/08/20 12:16:52;;;;;;;;;;;18.50;96.80;;;;;;4332239;33;42964;-79
2021/08/20 12:19:26;;;;;;;;;;;18.60;96.80;;;;;;4300879;33;42772;-79
2021/08/20 12:22:06;;;;;;;;;;;18.60;96.80;;;;;;4327982;33;44913;-79
2021/08/20 12:24:48;;;;;;;;;;;18.60;96.80;;;;;;4332384;33;43395;-79
2021/08/20 12:27:21;;;;;;;;;;;18.70;96.80;;;;;;4331766;33;43474;-79
2021/08/20 12:29:57;;;;;;;;;;;18.70;96.70;;;;;;4332418;33;44200;-78
2021/08/20 12:32:29;;;;;;;;;;;18.70;96.70;;;;;;4332033;33;44395;-78
2021/08/20 12:34:57;;;;;;;;;;;18.80;96.80;;;;;;4319048;33;43105;-79
2021/08/20 12:37:25;;;;;;;;;;;18.90;96.80;;;;;;4332027;33;43484;-78
2021/08/20 12:40:06;;;;;;;;;;;18.90;96.70;;;;;;4332433;33;20016;-79
2021/08/20 12:42:53;;;;;;;;;;;18.90;96.70;;;;;;4331495;33;42868;-78
2021/08/20 12:45:21;;;;;;;;;;;19.00;96.50;;;;;;4332072;33;43063;-79
2021/08/20 12:48:01;;;;;;;;;;;19.10;96.50;;;;;;4331399;33;43081;-79
2021/08/20 12:50:28;;;;;;;;;;;19.10;96.50;;;;;;4332076;33;44086;-79
2021/08/20 12:53:02;;;;;;;;;;;19.10;96.40;;;;;;4318163;33;43041;-80
2021/08/20 12:55:29;;;;;;;;;;;19.10;96.40;;;;;;4331966;33;43270;-79
2021/08/20 12:57:57;;;;;;;;;;;19.10;96.40;;;;;;4331889;33;43462;-82
2021/08/20 13:00:26;;;;;;;;;;;19.10;96.40;;;;;;4318641;33;44174;-80
2021/08/20 13:02:56;;;;;;;;;;;19.10;96.30;;;;;;4318410;33;44167;-80
2021/08/20 13:05:40;;;;;;;;;;;19.10;96.30;;;;;;4320069;33;43276;-81
2021/08/20 13:08:07;;;;;;;;;;;19.20;96.40;;;;;;4331219;33;43316;-80
2021/08/20 13:10:37;;;;;;;;;;;19.20;96.40;;;;;;4319333;33;20116;-80
2021/08/20 13:13:07;;;;;;;;;;;19.20;96.70;;;;;;4330948;33;43639;-80
2021/08/20 13:15:34;;;;;;;;;;;19.20;96.40;;;;;;4331336;33;43480;-82
2021/08/20 13:18:04;;;;;;;;;;;19.20;96.40;;;;;;4318122;33;43570;-81
2021/08/20 13:20:31;;;;;;;;;;;19.20;96.40;;;;;;4331245;33;42615;-80
2021/08/20 13:22:58;;;;;;;;;;;19.20;96.40;;;;;;4330919;33;42799;-79
2021/08/20 13:25:29;;;;;;;;;;;19.20;96.40;;;;;;4331374;33;44584;-80
2021/08/20 13:27:56;;;;;;;;;;;19.20;96.40;;;;;;4330882;33;43022;-79
2021/08/20 13:30:25;;;;;;;;;;;19.20;96.40;;;;;;4316999;33;42791;-79
2021/08/20 13:32:52;;;;;;;;;;;19.20;96.30;;;;;;4329659;33;44189;-79
2021/08/20 13:35:29;;;;;;;;;;;19.20;96.30;;;;;;4316996;33;42909;-79
2021/08/20 13:37:56;;;;;;;;;;;19.20;96.30;;;;;;4331200;33;44124;-79
2021/08/20 13:40:29;;;;;;;;;;;19.20;96.30;;;;;;4317245;33;43337;-80
2021/08/20 13:43:01;;;;;;;;;;;19.20;96.30;;;;;;4317558;33;43101;-75
2021/08/20 13:45:31;;;;;;;;;;;19.20;96.40;;;;;;4318201;33;43390;-76
2021/08/20 13:48:01;;;;;;;;;;;19.20;96.40;;;;;;4331331;33;42981;-75
2021/08/20 13:50:34;;;;;;;;;;;19.30;96.40;;;;;;4317468;33;42761;-75
2021/08/20 13:53:11;;;;;;;;;;;19.30;96.40;;;;;;4331223;33;44202;-75
2021/08/20 13:55:43;;;;;;;;;;;19.30;96.30;;;;;;4317555;33;43486;-75
2021/08/20 13:58:16;;;;;;;;;;;19.30;96.40;;;;;;4317959;33;44751;-75
2021/08/20 14:00:46;;;;;;;;;;;19.30;96.40;;;;;;4330479;33;44087;-75
2021/08/20 14:03:16;;;;;;;;;;;19.40;96.40;;;;;;4314628;33;44180;-76
2021/08/20 14:05:44;;;;;;;;;;;19.40;96.40;;;;;;4315099;33;43387;-75
2021/08/20 14:08:11;;;;;;;;;;;19.40;96.30;;;;;;4316360;33;43275;-75
2021/08/20 14:10:39;;;;;;;;;;;19.40;96.30;;;;;;4315980;33;42479;-75
2021/08/20 14:13:09;;;;;;;;;;;19.50;96.40;;;;;;4315057;33;41851;-75
2021/08/20 14:15:37;;;;;;;;;;;19.50;96.30;;;;;;4316188;33;43584;-75
2021/08/20 14:18:05;;;;;;;;;;;19.50;96.20;;;;;;4315678;33;44140;-75
2021/08/20 14:20:38;;;;;;;;;;;19.50;96.20;;;;;;4315082;33;43704;-75
2021/08/20 14:23:11;;;;;;;;;;;19.50;96.10;;;;;;4315555;33;43670;-75
2021/08/20 14:25:40;;;;;;;;;;;19.50;96.20;;;;;;4314603;33;44204;-75
2021/08/20 14:28:07;;;;;;;;;;;19.50;96.10;;;;;;4314922;33;43265;-75
2021/08/20 14:30:38;;;;;;;;;;;19.50;96.10;;;;;;4315486;33;44188;-75
2021/08/20 14:33:09;;;;;;;;;;;19.50;96.10;;;;;;4315029;33;45495;-75
2021/08/20 14:35:36;;;;;;;;;;;19.50;96.10;;;;;;4315585;33;44154;-75
2021/08/20 14:38:07;;;;;;;;;;;19.60;96.10;;;;;;4315512;33;43372;-75
2021/08/20 14:40:37;;;;;;;;;;;19.60;96.10;;;;;;4314984;33;42890;-75
2021/08/20 14:43:04;;;;;;;;;;;19.60;96.10;;;;;;4315437;33;42308;-75